Decoded Metar for EIDL (DONEGAL in IRELAND) (IATA:N/A) | Meteo·Mobile Aviation Weather
aviador You're here:

EIDL Decoded Metar

DONEGAL in IRELAND
Report Time2020-02-23 11:00:00
UTC Time2020-02-23 11:28:11
Flight Rules vfr VFR
Wind290° at 23 kt
W.Decomp.*RWY 21: 2.4 kt HW 22.9 kt RCW
Visibility9999 m
Phenomena:N/A
Clouds:N/A
Expected CloudBase > 2,800 ft AGL from Temp-Dew spread
CeilingNone
Temp07°C (ISA -8)
Dew Point00°C (61% RH)
AAT-3.3°C
QNH1013 hPa
Density Alt-843 ft
Elevation29 ft
Report Wrong Elevation
Raw Report
METAR EIDL 231100Z 29023KT CAVOK 07/00 Q1013=

Extra information for EIDL:More info

Metar Taf Metar & Taf Last 4 Metars F.Rules Stats Wind Profile Meteogram Temp Stats Airport Information Weather charts Add Link Nearby VenuesMetar ALERT Operation Metar Decoded Social comments